createdAt,value
2023-03-05T00:02:04.758Z,51.96
2023-03-05T00:04:51.826Z,50.33
2023-03-05T00:07:37.408Z,51.29
2023-03-05T00:10:22.964Z,50.23
2023-03-05T00:13:08.538Z,49.75
2023-03-05T00:15:54.473Z,49.90
2023-03-05T00:18:41.429Z,49.60
2023-03-05T00:21:32.165Z,50.40
2023-03-05T00:24:18.770Z,49.66
2023-03-05T00:27:04.585Z,48.28
2023-03-05T00:29:50.249Z,48.46
2023-03-05T00:32:36.414Z,49.74
2023-03-05T00:35:22.040Z,47.93
2023-03-05T00:38:07.496Z,48.50
2023-03-05T00:40:53.132Z,48.96
2023-03-05T00:43:38.682Z,45.10
2023-03-05T00:46:26.946Z,45.75
2023-03-05T00:49:12.684Z,46.64
2023-03-05T00:51:58.295Z,45.68
2023-03-05T00:54:43.874Z,45.64
2023-03-05T00:57:29.927Z,44.69
2023-03-05T01:00:16.649Z,46.50
2023-03-05T01:03:02.289Z,46.12
2023-03-05T01:05:48.007Z,46.60
2023-03-05T01:08:34.155Z,46.35
2023-03-05T01:11:19.534Z,47.08
2023-03-05T01:14:05.220Z,48.12
2023-03-05T01:16:50.709Z,48.55
2023-03-05T01:19:36.340Z,49.56
2023-03-05T01:22:21.581Z,50.00
2023-03-05T01:25:07.338Z,49.39
2023-03-05T01:27:52.821Z,49.50
2023-03-05T01:30:38.401Z,49.19
2023-03-05T01:33:23.716Z,49.27
2023-03-05T01:36:13.547Z,49.06
2023-03-05T01:38:59.240Z,49.81
2023-03-05T01:41:44.834Z,49.15
2023-03-05T01:44:30.909Z,49.98
2023-03-05T01:47:18.186Z,50.04
2023-03-05T01:50:07.180Z,50.25
2023-03-05T01:52:59.428Z,49.40
2023-03-05T01:55:45.406Z,50.39
2023-03-05T01:58:30.757Z,50.17
2023-03-05T02:01:17.169Z,50.41
2023-03-05T02:04:03.277Z,51.00
2023-03-05T02:06:49.918Z,50.96
2023-03-05T02:09:39.722Z,50.37
2023-03-05T02:12:25.934Z,50.81
2023-03-05T02:15:12.677Z,50.71
2023-03-05T02:17:58.238Z,51.45
2023-03-05T02:20:57.263Z,51.53
2023-03-05T02:23:42.980Z,51.30
2023-03-05T02:26:28.642Z,51.80
2023-03-05T02:29:19.173Z,52.19
2023-03-05T02:32:04.967Z,52.67
2023-03-05T02:34:50.661Z,52.98
2023-03-05T02:37:36.742Z,52.74
2023-03-05T02:40:22.879Z,53.47
2023-03-05T02:43:09.276Z,54.10
2023-03-05T02:45:55.188Z,53.96
2023-03-05T02:48:41.266Z,52.98
2023-03-05T02:51:29.186Z,52.57
2023-03-05T02:54:15.056Z,53.11
2023-03-05T02:57:00.923Z,52.11
2023-03-05T02:59:46.970Z,51.88
2023-03-05T03:02:32.538Z,51.66
2023-03-05T03:05:18.213Z,51.61
2023-03-05T03:08:04.224Z,51.64
2023-03-05T03:10:49.891Z,51.31
2023-03-05T03:13:35.614Z,51.34
2023-03-05T03:16:21.764Z,50.93
2023-03-05T03:19:07.686Z,51.59
2023-03-05T03:21:55.153Z,51.23
2023-03-05T03:24:41.923Z,50.54
2023-03-05T03:27:27.629Z,50.66
2023-03-05T03:30:14.444Z,50.76
2023-03-05T03:33:00.178Z,51.14
2023-03-05T03:35:46.509Z,50.17
2023-03-05T03:38:32.072Z,49.66
2023-03-05T03:41:18.904Z,50.45
2023-03-05T03:44:07.145Z,49.93
2023-03-05T03:46:54.277Z,49.86
2023-03-05T03:49:39.689Z,49.54
2023-03-05T03:52:26.494Z,49.92
2023-03-05T03:55:12.114Z,49.54
2023-03-05T03:57:57.722Z,49.32
2023-03-05T04:00:43.254Z,49.38
2023-03-05T04:03:28.735Z,49.58
2023-03-05T04:06:15.454Z,49.18
2023-03-05T04:09:01.040Z,49.28
2023-03-05T04:11:46.677Z,49.19
2023-03-05T04:14:32.384Z,49.94
2023-03-05T04:17:17.715Z,49.98
2023-03-05T04:20:05.114Z,50.55
2023-03-05T04:22:50.587Z,49.91
2023-03-05T04:25:36.033Z,49.96
2023-03-05T04:28:21.732Z,50.33
2023-03-05T04:31:07.217Z,50.69
2023-03-05T04:33:52.786Z,51.15
2023-03-05T04:36:38.453Z,51.28
2023-03-05T04:39:24.329Z,51.36
2023-03-05T04:42:10.629Z,51.75
2023-03-05T04:44:56.089Z,52.40
2023-03-05T04:47:42.001Z,52.67
2023-03-05T04:50:27.378Z,52.99
2023-03-05T04:53:13.539Z,53.76
2023-03-05T04:56:01.590Z,53.50
2023-03-05T04:58:47.660Z,54.10
2023-03-05T05:01:35.460Z,54.52
2023-03-05T05:04:21.095Z,53.53
2023-03-05T05:07:07.842Z,54.26
2023-03-05T05:09:53.270Z,54.16
2023-03-05T05:12:38.965Z,54.12
2023-03-05T05:15:24.605Z,54.90
2023-03-05T05:18:10.191Z,54.98
2023-03-05T05:20:56.048Z,54.04
2023-03-05T05:23:41.803Z,52.92
2023-03-05T05:26:27.875Z,52.67
2023-03-05T05:29:15.100Z,51.76
2023-03-05T05:32:00.683Z,51.39
2023-03-05T05:34:51.661Z,51.44
2023-03-05T05:37:37.326Z,51.51
2023-03-05T05:40:22.879Z,53.07
2023-03-05T05:43:08.964Z,51.96
2023-03-05T05:45:54.424Z,52.13
2023-03-05T05:48:40.323Z,51.79
2023-03-05T05:51:25.734Z,51.82
2023-03-05T05:54:15.408Z,51.99
2023-03-05T05:57:04.209Z,52.50
2023-03-05T05:59:50.000Z,52.27
2023-03-05T06:02:41.641Z,51.82
2023-03-05T06:05:28.069Z,52.47
2023-03-05T06:08:14.256Z,52.42
2023-03-05T06:10:59.806Z,51.54
2023-03-05T06:13:45.962Z,50.03
2023-03-05T06:16:31.236Z,47.80
2023-03-05T06:19:17.050Z,47.10
2023-03-05T06:22:03.078Z,46.60
2023-03-05T06:24:48.722Z,44.48
2023-03-05T06:27:38.377Z,44.35
2023-03-05T06:30:23.912Z,43.29
2023-03-05T06:33:21.416Z,42.87
2023-03-05T06:36:19.758Z,42.85
2023-03-05T06:39:05.452Z,39.94
2023-03-05T06:41:52.208Z,41.25
2023-03-05T06:44:40.287Z,40.47
2023-03-05T06:47:25.547Z,39.99
2023-03-05T06:50:13.951Z,39.50
2023-03-05T06:52:59.476Z,38.98
2023-03-05T06:55:45.521Z,38.01
2023-03-05T06:58:31.414Z,38.27
2023-03-05T07:01:16.984Z,38.08
2023-03-05T07:04:03.380Z,38.27
2023-03-05T07:06:51.583Z,37.99
2023-03-05T07:09:57.551Z,38.41
2023-03-05T07:12:54.455Z,37.70
2023-03-05T07:16:00.378Z,37.28
2023-03-05T07:19:00.985Z,35.46
2023-03-05T07:21:48.190Z,35.03
2023-03-05T07:24:35.618Z,35.98
2023-03-05T07:27:26.140Z,34.07
2023-03-05T07:30:12.995Z,35.82
2023-03-05T07:32:58.758Z,33.73
2023-03-05T07:35:44.291Z,34.94
2023-03-05T07:38:30.035Z,35.72
2023-03-05T07:41:20.082Z,36.34
2023-03-05T07:44:06.275Z,35.77
2023-03-05T07:46:54.240Z,36.29
2023-03-05T07:49:41.780Z,36.78
2023-03-05T07:52:35.886Z,35.55
2023-03-05T07:55:21.560Z,33.89
2023-03-05T07:58:08.984Z,35.69
2023-03-05T08:00:54.933Z,36.70
2023-03-05T08:03:44.697Z,35.07
2023-03-05T08:06:30.742Z,36.49
2023-03-05T08:09:17.836Z,37.33
2023-03-05T08:12:33.969Z,37.45
2023-03-05T08:15:34.430Z,35.08
2023-03-05T08:18:45.730Z,37.23
2023-03-05T08:21:36.786Z,36.72
2023-03-05T08:24:37.034Z,36.66
2023-03-05T08:27:40.834Z,36.70
2023-03-05T08:34:00.210Z,37.20
2023-03-05T08:37:04.520Z,38.63
2023-03-05T08:40:02.466Z,38.92
2023-03-05T08:43:06.932Z,38.33
2023-03-05T08:46:17.914Z,36.67
2023-03-05T08:49:12.694Z,37.78
2023-03-05T08:52:46.460Z,39.34
2023-03-05T08:55:58.189Z,39.96
2023-03-05T08:58:56.210Z,38.26
2023-03-05T09:02:12.499Z,38.62
2023-03-05T09:04:57.764Z,39.67
2023-03-05T09:07:55.205Z,39.01
2023-03-05T09:11:26.929Z,39.48
2023-03-05T09:14:23.367Z,40.27
2023-03-05T09:17:31.252Z,39.87
2023-03-05T09:20:30.310Z,38.47
2023-03-05T09:23:28.547Z,39.44
2023-03-05T09:26:21.824Z,39.95
2023-03-05T09:29:08.940Z,40.07
2023-03-05T09:31:57.689Z,39.93
2023-03-05T09:35:11.179Z,41.05
2023-03-05T09:37:59.400Z,40.97
2023-03-05T09:41:07.373Z,40.51
2023-03-05T09:44:14.856Z,40.64
2023-03-05T09:47:15.436Z,40.83
2023-03-05T09:50:25.049Z,38.84
2023-03-05T09:53:22.619Z,40.80
2023-03-05T10:00:09.176Z,42.11
2023-03-05T10:03:04.249Z,41.98
2023-03-05T10:05:58.587Z,42.12
2023-03-05T10:08:52.131Z,41.84
2023-03-05T10:12:02.383Z,41.56
2023-03-05T10:14:50.756Z,41.79
2023-03-05T10:18:46.718Z,42.51
2023-03-05T10:21:53.158Z,42.91
2023-03-05T10:25:11.010Z,43.86
2023-03-05T10:28:05.922Z,44.39
2023-03-05T10:31:18.353Z,44.96
2023-03-05T10:34:49.980Z,45.57
2023-03-05T10:37:54.625Z,45.66
2023-03-05T10:41:05.515Z,45.83
2023-03-05T10:43:57.951Z,46.15
2023-03-05T10:46:46.005Z,46.10
2023-03-05T10:49:50.407Z,46.51
2023-03-05T10:52:50.970Z,46.34
2023-03-05T10:55:40.329Z,46.45
2023-03-05T10:58:28.200Z,46.20
2023-03-05T11:01:15.617Z,46.96
2023-03-05T11:04:06.854Z,46.95
2023-03-05T11:06:52.557Z,46.69
2023-03-05T11:09:38.333Z,46.15
2023-03-05T11:12:28.124Z,46.28
2023-03-05T11:15:13.518Z,46.27
2023-03-05T11:18:25.471Z,45.00
2023-03-05T11:21:24.818Z,45.75
2023-03-05T11:24:19.887Z,45.86
2023-03-05T11:27:32.512Z,44.04
2023-03-05T11:30:32.574Z,45.39
2023-03-05T11:33:24.316Z,44.84
2023-03-05T11:36:35.624Z,45.25
2023-03-05T11:39:23.905Z,45.33
2023-03-05T11:42:26.253Z,45.53
2023-03-05T11:45:17.089Z,45.82
2023-03-05T11:48:18.864Z,45.11
2023-03-05T11:51:18.307Z,45.85
2023-03-05T11:54:08.959Z,44.00
2023-03-05T11:56:55.321Z,43.96
2023-03-05T11:59:44.716Z,45.17
2023-03-05T12:02:30.226Z,45.67
2023-03-05T12:05:17.413Z,45.33
2023-03-05T12:08:05.788Z,45.47
2023-03-05T12:10:53.018Z,46.19
2023-03-05T12:13:45.335Z,45.16
2023-03-05T12:16:51.772Z,44.97
2023-03-05T12:19:41.580Z,45.33
2023-03-05T12:22:36.594Z,45.12
2023-03-05T12:25:35.213Z,45.13
2023-03-05T12:28:55.794Z,45.25
2023-03-05T12:31:44.287Z,44.62
2023-03-05T12:34:41.003Z,44.28
2023-03-05T12:37:28.170Z,45.04
2023-03-05T12:40:23.049Z,44.57
2023-03-05T12:43:30.323Z,45.25
2023-03-05T12:46:23.780Z,45.12
2023-03-05T12:49:19.129Z,45.15
2023-03-05T12:52:12.679Z,45.34
2023-03-05T12:55:15.388Z,44.87
2023-03-05T12:58:12.498Z,45.61
2023-03-05T13:01:29.401Z,44.78
2023-03-05T13:04:21.434Z,45.89
2023-03-05T13:07:15.152Z,46.12
2023-03-05T13:10:00.742Z,45.73
2023-03-05T13:12:55.668Z,46.22
2023-03-05T13:15:46.454Z,46.43
2023-03-05T13:18:33.347Z,45.36
2023-03-05T13:21:24.622Z,44.67
2023-03-05T13:24:19.785Z,45.20
2023-03-05T13:27:30.081Z,45.68
2023-03-05T13:30:31.127Z,45.92
2023-03-05T13:33:26.029Z,45.29
2023-03-05T13:36:16.173Z,45.75
2023-03-05T13:39:04.159Z,46.02
2023-03-05T13:42:00.915Z,45.39
2023-03-05T13:45:17.875Z,45.01
2023-03-05T13:48:07.470Z,46.99
2023-03-05T13:50:58.769Z,45.61
2023-03-05T13:53:49.279Z,45.47
2023-03-05T13:56:35.015Z,45.06
2023-03-05T13:59:23.042Z,45.80
2023-03-05T14:02:20.897Z,46.38
2023-03-05T14:05:15.422Z,44.95
2023-03-05T14:08:02.005Z,44.79
2023-03-05T14:10:48.570Z,44.83
2023-03-05T14:13:35.089Z,44.90
2023-03-05T14:16:32.662Z,43.91
2023-03-05T14:19:45.205Z,44.87
2023-03-05T14:22:37.466Z,45.12
2023-03-05T14:25:39.988Z,43.99
2023-03-05T14:28:29.331Z,44.60
2023-03-05T14:31:18.433Z,44.13
2023-03-05T14:34:07.300Z,43.77
2023-03-05T14:36:55.258Z,43.52
2023-03-05T14:39:51.741Z,43.43
2023-03-05T14:42:56.513Z,44.25
2023-03-05T14:45:43.825Z,44.09
2023-03-05T14:48:29.361Z,44.66
2023-03-05T14:51:15.145Z,44.29
2023-03-05T14:54:00.577Z,43.85
2023-03-05T14:56:46.300Z,44.16
2023-03-05T14:59:31.955Z,43.82
2023-03-05T15:02:20.516Z,44.26
2023-03-05T15:07:59.022Z,44.85
2023-03-05T15:10:45.122Z,44.33
2023-03-05T15:13:31.850Z,44.82
2023-03-05T15:16:19.857Z,44.40
2023-03-05T15:19:05.896Z,44.15
2023-03-05T15:21:56.733Z,44.62
2023-03-05T15:24:42.545Z,44.68
2023-03-05T15:27:29.556Z,44.48
2023-03-05T15:30:41.203Z,44.87
2023-03-05T15:33:28.503Z,44.77
2023-03-05T15:36:15.593Z,45.14
2023-03-05T15:39:01.479Z,44.99
2023-03-05T15:41:47.254Z,45.02
2023-03-05T15:44:33.533Z,45.76
2023-03-05T15:47:20.947Z,45.60
2023-03-05T15:50:23.356Z,45.30
2023-03-05T15:53:10.369Z,45.77
2023-03-05T15:55:56.068Z,45.93
2023-03-05T15:58:43.453Z,46.58
2023-03-05T16:01:28.906Z,46.62
2023-03-05T16:04:15.786Z,46.32
2023-03-05T16:07:03.896Z,46.94
2023-03-05T16:09:51.138Z,46.43
2023-03-05T16:12:40.961Z,46.04
2023-03-05T16:15:33.716Z,47.45
2023-03-05T16:18:20.318Z,47.32
2023-03-05T16:21:09.335Z,47.42
2023-03-05T16:23:54.778Z,47.84
2023-03-05T16:26:41.942Z,47.57
2023-03-05T16:29:30.800Z,48.66
2023-03-05T16:32:17.917Z,49.06
2023-03-05T16:35:03.665Z,48.26
2023-03-05T16:37:49.654Z,47.98
2023-03-05T16:41:06.045Z,48.43
2023-03-05T16:43:45.640Z,48.62
2023-03-05T16:46:34.622Z,47.60
2023-03-05T16:49:21.022Z,47.51
2023-03-05T16:52:18.261Z,47.62
2023-03-05T16:55:05.869Z,47.56
2023-03-05T16:57:51.190Z,47.88
2023-03-05T17:00:36.707Z,48.05
2023-03-05T17:03:22.896Z,47.81
2023-03-05T17:06:12.580Z,47.82
2023-03-05T17:08:58.856Z,48.02
2023-03-05T17:11:44.229Z,48.93
2023-03-05T17:14:30.161Z,49.94
2023-03-05T17:17:17.109Z,50.19
2023-03-05T17:20:02.656Z,50.60
2023-03-05T17:22:48.451Z,50.89
2023-03-05T17:25:34.056Z,51.03
2023-03-05T17:28:20.189Z,52.07
2023-03-05T17:31:06.570Z,53.57
2023-03-05T17:33:54.812Z,54.16
2023-03-05T17:36:40.642Z,55.21
2023-03-05T17:39:26.513Z,56.04
2023-03-05T17:42:12.061Z,57.19
2023-03-05T17:44:59.298Z,58.17
2023-03-05T17:47:44.692Z,59.04
2023-03-05T17:50:30.726Z,59.70
2023-03-05T17:53:15.997Z,61.29
2023-03-05T17:56:02.314Z,62.17
2023-03-05T17:58:49.890Z,64.51
2023-03-05T18:01:35.699Z,67.84
2023-03-05T18:04:21.709Z,67.74
2023-03-05T18:07:07.414Z,68.37
2023-03-05T18:09:53.288Z,68.41
2023-03-05T18:12:39.069Z,68.56
2023-03-05T18:15:26.167Z,68.53
2023-03-05T18:18:11.789Z,68.17
2023-03-05T18:20:57.292Z,68.31
2023-03-05T18:23:42.872Z,68.49
2023-03-05T18:26:28.436Z,68.19
2023-03-05T18:29:13.946Z,69.30
2023-03-05T18:32:00.608Z,69.88
2023-03-05T18:34:45.981Z,69.94
2023-03-05T18:37:31.644Z,70.28
2023-03-05T18:40:22.931Z,70.77
2023-03-05T18:43:09.763Z,70.65
2023-03-05T18:45:55.964Z,69.80
2023-03-05T18:48:41.279Z,70.29
2023-03-05T18:51:28.522Z,69.69
2023-03-05T18:54:14.471Z,69.31
2023-03-05T18:57:00.270Z,68.83
2023-03-05T18:59:45.986Z,68.71
2023-03-05T19:02:31.172Z,68.62
2023-03-05T19:05:18.526Z,68.57
2023-03-05T19:08:04.258Z,67.97
2023-03-05T19:10:49.443Z,68.12
2023-03-05T19:13:42.147Z,67.88
2023-03-05T19:16:33.849Z,67.58
2023-03-05T19:19:24.570Z,68.10
2023-03-05T19:22:11.525Z,67.94
2023-03-05T19:24:57.669Z,67.94
2023-03-05T19:27:43.707Z,68.09
2023-03-05T19:30:30.490Z,68.12
2023-03-05T19:33:16.752Z,67.27
2023-03-05T19:36:02.393Z,67.41
2023-03-05T19:38:49.625Z,67.18
2023-03-05T19:41:36.341Z,66.96
2023-03-05T19:44:22.704Z,66.85
2023-03-05T19:47:10.619Z,66.70
2023-03-05T19:49:59.520Z,67.23
2023-03-05T19:52:45.531Z,66.42
2023-03-05T19:55:31.242Z,67.01
2023-03-05T19:58:16.898Z,65.95
2023-03-05T20:01:15.515Z,65.83
2023-03-05T20:04:03.315Z,65.73
2023-03-05T20:06:49.517Z,66.16
2023-03-05T20:09:35.635Z,65.99
2023-03-05T20:12:24.326Z,65.72
2023-03-05T20:15:10.042Z,65.26
2023-03-05T20:17:58.226Z,64.97
2023-03-05T20:20:43.838Z,65.24
2023-03-05T20:23:29.421Z,65.56
2023-03-05T20:26:14.959Z,65.13
2023-03-05T20:29:00.356Z,64.58
2023-03-05T20:31:47.054Z,65.41
2023-03-05T20:34:32.837Z,65.45
2023-03-05T20:38:12.836Z,65.50
2023-03-05T20:41:05.931Z,65.31
2023-03-05T20:43:52.196Z,65.76
2023-03-05T20:47:32.357Z,65.59
2023-03-05T20:50:23.683Z,65.70
2023-03-05T20:53:09.984Z,65.59
2023-03-05T20:55:55.685Z,66.10
2023-03-05T20:58:41.513Z,65.40
2023-03-05T21:01:28.600Z,65.87
2023-03-05T21:04:14.459Z,66.00
2023-03-05T21:07:00.220Z,66.63
2023-03-05T21:09:45.692Z,66.18
2023-03-05T21:12:34.539Z,66.74
2023-03-05T21:15:26.737Z,67.02
2023-03-05T21:18:12.180Z,66.64
2023-03-05T21:20:57.824Z,66.71
2023-03-05T21:23:44.313Z,66.69
2023-03-05T21:26:30.104Z,66.78
2023-03-05T21:29:15.616Z,65.82
2023-03-05T21:32:02.050Z,66.35
2023-03-05T21:34:47.478Z,66.59
2023-03-05T21:37:33.029Z,65.99
2023-03-05T21:40:19.792Z,66.60
2023-03-05T21:43:05.611Z,66.31
2023-03-05T21:45:53.696Z,66.54
2023-03-05T21:48:39.675Z,66.44
2023-03-05T21:52:09.091Z,66.60
2023-03-05T21:54:55.989Z,66.33
2023-03-05T21:57:42.852Z,65.70
2023-03-05T22:00:28.967Z,65.18
2023-03-05T22:03:14.710Z,65.69
2023-03-05T22:06:00.193Z,65.21
2023-03-05T22:08:49.780Z,65.75
2023-03-05T22:11:35.335Z,65.17
2023-03-05T22:14:21.170Z,64.94
2023-03-05T22:17:06.508Z,65.19
2023-03-05T22:19:52.060Z,64.59
2023-03-05T22:22:37.585Z,64.97
2023-03-05T22:25:23.133Z,64.25
2023-03-05T22:28:10.663Z,65.00
2023-03-05T22:30:57.030Z,64.72
2023-03-05T22:33:42.751Z,64.45
2023-03-05T22:36:28.262Z,64.60
2023-03-05T22:39:13.957Z,63.98
2023-03-05T22:41:59.388Z,64.01
2023-03-05T22:44:44.813Z,64.49
2023-03-05T22:47:31.354Z,65.04
2023-03-05T22:50:17.703Z,64.62
2023-03-05T22:53:03.601Z,64.56
2023-03-05T22:55:49.289Z,63.96
2023-03-05T22:58:35.107Z,63.72
2023-03-05T23:01:24.236Z,64.45
2023-03-05T23:04:49.481Z,64.39
2023-03-05T23:07:38.218Z,64.35
2023-03-05T23:10:27.396Z,64.53
2023-03-05T23:13:12.922Z,64.45
2023-03-05T23:15:58.443Z,64.19
2023-03-05T23:18:44.055Z,65.00
2023-03-05T23:21:29.496Z,64.43
2023-03-05T23:24:15.042Z,65.20
2023-03-05T23:27:01.026Z,64.26
2023-03-05T23:30:22.753Z,65.18
2023-03-05T23:33:15.613Z,65.02
2023-03-05T23:36:01.384Z,65.26
2023-03-05T23:38:47.769Z,65.43
2023-03-05T23:41:33.354Z,65.24
2023-03-05T23:44:20.653Z,65.15
2023-03-05T23:47:06.323Z,65.55
2023-03-05T23:49:53.486Z,65.82
2023-03-05T23:52:39.001Z,65.66
2023-03-05T23:55:30.442Z,65.65
2023-03-05T23:58:17.111Z,65.75
